Terminal Aerodrome Forecast
Issued by NWS

Home | Current Version | Previous Version | Text Only | Print | Product List | Glossary Off
Versions: 1 2 3 4 5 6 7 8 9 10 11 12 13 14 15 16 17 18

741
FTUS43 KBIS 191723
TAFDIK
TAF
KDIK 191723Z 1918/2018 30016G22KT P6SM -RA SCT060 OVC110
     FM192000 29013KT P6SM VCSH BKN060
     FM200200 25010KT P6SM BKN080
     FM201500 25015G25KT P6SM SCT150=

USA.gov is the U.S. government's official web portal to all federal, state and local government web resources and services.